Time;durP1;ratioP1;P1;durP2;ratioP2;P2;SDS_P1;SDS_P2;PMS_P1;PMS_P2;Temp;Humidity;BMP_temperature;BMP_pressure;BME280_temperature;BME280_humidity;BME280_pressure;Samples;Min_cycle;Max_cycle;Signal;HPM_P1;HPM_P2
2021/12/10 00:01:15;;;;;;;;;;;4.70;1.00;;;;;;5051547;28;19931;-82
2021/12/10 00:03:44;;;;;;;;;;;4.70;1.00;;;;;;5060340;28;20330;-82
2021/12/10 00:06:14;;;;;;;;;;;4.70;1.00;;;;;;5058003;28;19914;-83
2021/12/10 00:08:47;;;;;;;;;;;4.70;1.00;;;;;;5069784;28;19912;-82
2021/12/10 00:11:16;;;;;;;;;;;4.70;1.00;;;;;;5023757;28;19931;-82
2021/12/10 00:13:44;;;;;;;;;;;4.60;1.00;;;;;;5056270;28;19917;-83
2021/12/10 00:16:10;;;;;;;;;;;4.60;1.00;;;;;;5057424;28;19948;-83
2021/12/10 00:18:38;;;;;;;;;;;4.50;1.00;;;;;;5068272;28;19955;-83
2021/12/10 00:21:04;;;;;;;;;;;4.50;1.00;;;;;;5073925;28;19939;-82
2021/12/10 00:23:31;;;;;;;;;;;4.40;1.00;;;;;;5068090;28;19913;-82
2021/12/10 00:25:57;;;;;;;;;;;4.30;1.00;;;;;;5059117;28;19916;-83
2021/12/10 00:28:28;;;;;;;;;;;4.20;1.00;;;;;;5067373;28;19912;-82
2021/12/10 00:31:16;;;;;;;;;;;4.20;1.00;;;;;;5049303;28;20306;-82
2021/12/10 00:33:47;;;;;;;;;;;4.10;1.00;;;;;;5040784;28;19913;-83
2021/12/10 00:36:12;;;;;;;;;;;4.10;1.00;;;;;;5045713;28;19923;-83
2021/12/10 00:38:38;;;;;;;;;;;4.00;1.00;;;;;;5070697;28;19920;-83
2021/12/10 00:41:04;;;;;;;;;;;4.00;1.00;;;;;;5064024;28;20373;-83
2021/12/10 00:43:30;;;;;;;;;;;3.90;1.00;;;;;;5067105;28;19919;-83
2021/12/10 00:45:56;;;;;;;;;;;3.90;1.00;;;;;;5058359;28;19912;-84
2021/12/10 00:48:22;;;;;;;;;;;3.90;1.00;;;;;;5070368;28;19953;-82
2021/12/10 00:50:49;;;;;;;;;;;3.80;11.00;;;;;;5070890;28;19956;-83
2021/12/10 00:53:15;;;;;;;;;;;3.80;22.60;;;;;;5051460;28;19951;-82
2021/12/10 00:55:41;;;;;;;;;;;3.70;39.40;;;;;;5070105;28;19961;-82
2021/12/10 00:58:07;;;;;;;;;;;3.70;52.10;;;;;;5030515;28;19991;-82
2021/12/10 01:00:35;;;;;;;;;;;3.70;72.40;;;;;;5043608;28;19980;-82
2021/12/10 01:03:01;;;;;;;;;;;3.70;73.10;;;;;;5034084;28;19936;-83
2021/12/10 01:05:27;;;;;;;;;;;3.60;59.40;;;;;;5055477;28;19919;-82
2021/12/10 01:07:52;;;;;;;;;;;3.60;84.60;;;;;;5055093;28;20004;-82
2021/12/10 01:10:27;;;;;;;;;;;3.60;99.90;;;;;;5072079;28;19920;-83
2021/12/10 01:12:54;;;;;;;;;;;3.40;99.90;;;;;;5058691;28;20308;-83
2021/12/10 01:23:48;;;;;;;;;;;3.30;99.90;;;;;;5060776;28;19934;-82
2021/12/10 01:28:44;;;;;;;;;;;3.20;99.90;;;;;;5068818;28;19951;-83
2021/12/10 01:31:09;;;;;;;;;;;3.20;99.90;;;;;;5054622;28;19917;-82
2021/12/10 01:33:35;;;;;;;;;;;3.20;99.90;;;;;;5037656;28;20000;-82
2021/12/10 01:36:06;;;;;;;;;;;3.20;99.90;;;;;;5065975;28;19913;-84
2021/12/10 01:38:32;;;;;;;;;;;3.20;99.90;;;;;;5026888;28;19917;-82
2021/12/10 01:41:00;;;;;;;;;;;3.20;99.90;;;;;;5059369;28;19923;-82
2021/12/10 01:43:26;;;;;;;;;;;3.20;99.90;;;;;;5037683;28;20011;-83
2021/12/10 01:45:53;;;;;;;;;;;3.30;99.90;;;;;;5064227;28;19948;-83
2021/12/10 01:48:22;;;;;;;;;;;3.30;99.90;;;;;;5022469;28;19910;-83
2021/12/10 01:50:47;;;;;;;;;;;3.30;99.90;;;;;;5064488;28;20462;-82
2021/12/10 01:53:15;;;;;;;;;;;3.30;99.90;;;;;;5059990;28;19909;-82
2021/12/10 01:55:42;;;;;;;;;;;3.30;77.70;;;;;;5049595;28;19924;-82
2021/12/10 01:58:10;;;;;;;;;;;3.30;32.60;;;;;;5056254;28;19999;-82
2021/12/10 02:00:37;;;;;;;;;;;3.30;1.00;;;;;;5063083;28;19966;-83
2021/12/10 02:03:03;;;;;;;;;;;3.40;1.00;;;;;;5066324;28;19912;-82
2021/12/10 02:05:29;;;;;;;;;;;3.40;1.00;;;;;;5065907;28;19924;-83
2021/12/10 02:07:55;;;;;;;;;;;3.40;1.00;;;;;;5057353;28;19913;-83
2021/12/10 02:10:22;;;;;;;;;;;3.40;1.00;;;;;;5068537;28;20270;-83
2021/12/10 02:12:47;;;;;;;;;;;3.40;1.00;;;;;;5055869;28;19995;-82
2021/12/10 02:15:14;;;;;;;;;;;3.50;1.00;;;;;;5051313;28;19939;-82
2021/12/10 02:17:42;;;;;;;;;;;3.50;1.00;;;;;;5061971;28;19913;-85
2021/12/10 02:20:09;;;;;;;;;;;3.50;99.90;;;;;;5064387;28;19913;-82
2021/12/10 02:22:35;;;;;;;;;;;3.60;99.90;;;;;;5072331;28;19923;-83
2021/12/10 02:25:01;;;;;;;;;;;3.60;99.90;;;;;;5064551;28;19940;-83
2021/12/10 02:27:26;;;;;;;;;;;3.60;99.90;;;;;;5068387;28;19913;-83
2021/12/10 02:29:52;;;;;;;;;;;3.60;99.90;;;;;;5060447;28;20319;-83
2021/12/10 02:32:17;;;;;;;;;;;3.50;99.90;;;;;;5052899;28;19939;-83
2021/12/10 02:34:44;;;;;;;;;;;3.50;99.90;;;;;;5066092;28;19938;-82
2021/12/10 02:37:10;;;;;;;;;;;3.50;99.90;;;;;;5068946;28;19920;-82
2021/12/10 02:39:36;;;;;;;;;;;3.40;99.90;;;;;;5065880;28;19916;-82
2021/12/10 02:42:01;;;;;;;;;;;3.40;99.90;;;;;;5068129;28;19912;-83
2021/12/10 02:44:28;;;;;;;;;;;3.40;99.90;;;;;;5055913;28;19913;-82
2021/12/10 02:46:54;;;;;;;;;;;3.40;1.00;;;;;;5069469;28;19915;-82
2021/12/10 02:49:20;;;;;;;;;;;3.30;1.00;;;;;;5052781;28;20365;-82
2021/12/10 02:51:45;;;;;;;;;;;3.30;1.00;;;;;;5058263;28;20263;-83
2021/12/10 02:54:12;;;;;;;;;;;3.30;1.00;;;;;;5041647;28;19913;-82
2021/12/10 02:56:39;;;;;;;;;;;3.30;1.00;;;;;;5071385;28;19916;-83
2021/12/10 02:59:04;;;;;;;;;;;3.30;1.00;;;;;;5054370;28;19956;-82
2021/12/10 03:01:35;;;;;;;;;;;3.30;1.00;;;;;;5069961;28;19938;-83
2021/12/10 03:04:01;;;;;;;;;;;3.30;1.00;;;;;;5058866;28;19913;-82
2021/12/10 03:06:27;;;;;;;;;;;3.30;1.00;;;;;;5040054;28;19963;-82
2021/12/10 03:08:54;;;;;;;;;;;3.30;1.00;;;;;;5048976;28;19921;-82
2021/12/10 03:11:21;;;;;;;;;;;3.30;1.00;;;;;;5067319;28;19935;-82
2021/12/10 03:13:47;;;;;;;;;;;3.30;1.00;;;;;;5069167;28;19920;-83
2021/12/10 03:16:12;;;;;;;;;;;3.30;1.00;;;;;;5067731;28;19920;-82
2021/12/10 03:18:38;;;;;;;;;;;3.30;1.00;;;;;;5052935;28;19929;-82
2021/12/10 03:21:04;;;;;;;;;;;3.30;1.00;;;;;;5060893;28;20424;-82
2021/12/10 03:23:30;;;;;;;;;;;3.30;1.00;;;;;;5068524;28;19952;-82
2021/12/10 03:25:55;;;;;;;;;;;3.40;1.00;;;;;;5030689;28;19908;-82
2021/12/10 03:28:21;;;;;;;;;;;3.40;1.00;;;;;;5054435;28;20341;-82
2021/12/10 03:30:49;;;;;;;;;;;3.40;1.00;;;;;;5058691;28;19913;-82
2021/12/10 03:33:14;;;;;;;;;;;3.30;1.00;;;;;;5037568;28;20287;-82
2021/12/10 03:35:44;;;;;;;;;;;3.40;1.00;;;;;;5062464;28;19947;-84
2021/12/10 03:38:12;;;;;;;;;;;3.40;1.00;;;;;;5078608;28;19956;-82
2021/12/10 03:40:38;;;;;;;;;;;3.40;1.00;;;;;;5069395;28;19948;-83
2021/12/10 03:43:04;;;;;;;;;;;3.40;1.00;;;;;;5050466;28;19928;-83
2021/12/10 03:45:32;;;;;;;;;;;3.40;1.00;;;;;;5062058;28;20335;-82
2021/12/10 03:47:59;;;;;;;;;;;3.40;1.00;;;;;;5074480;28;19916;-82
2021/12/10 03:50:29;;;;;;;;;;;3.50;1.00;;;;;;5061643;28;19913;-83
2021/12/10 03:52:54;;;;;;;;;;;3.50;1.00;;;;;;5074571;28;19935;-82
2021/12/10 03:55:22;;;;;;;;;;;3.50;1.00;;;;;;5048229;28;19909;-82
2021/12/10 03:57:48;;;;;;;;;;;3.50;1.00;;;;;;5040078;28;19920;-82
2021/12/10 04:00:13;;;;;;;;;;;3.50;1.00;;;;;;5039200;28;19912;-82
2021/12/10 04:02:39;;;;;;;;;;;3.50;1.00;;;;;;5063411;28;19912;-83
2021/12/10 04:05:05;;;;;;;;;;;3.50;1.00;;;;;;5057354;28;19913;-82
2021/12/10 04:07:30;;;;;;;;;;;3.50;1.00;;;;;;5064793;28;19909;-82
2021/12/10 04:09:56;;;;;;;;;;;3.50;1.00;;;;;;5058413;28;19917;-82
2021/12/10 04:12:22;;;;;;;;;;;3.50;1.00;;;;;;5065963;28;19909;-82
2021/12/10 04:14:49;;;;;;;;;;;3.50;1.00;;;;;;5050536;28;19928;-82
2021/12/10 04:17:14;;;;;;;;;;;3.40;1.00;;;;;;5051982;28;19917;-81
2021/12/10 04:19:40;;;;;;;;;;;3.40;1.00;;;;;;5060181;28;20487;-82
2021/12/10 04:22:07;;;;;;;;;;;3.40;1.00;;;;;;5047553;28;20067;-82
2021/12/10 04:24:34;;;;;;;;;;;3.40;1.00;;;;;;5055304;28;20286;-82
2021/12/10 04:27:00;;;;;;;;;;;3.30;1.00;;;;;;5069400;28;19909;-82
2021/12/10 04:29:26;;;;;;;;;;;3.40;1.00;;;;;;5038917;28;19913;-81
2021/12/10 04:31:52;;;;;;;;;;;3.40;1.00;;;;;;5061663;28;19924;-82
2021/12/10 04:34:20;;;;;;;;;;;3.40;1.00;;;;;;5055417;28;19912;-82
2021/12/10 04:36:46;;;;;;;;;;;3.40;1.00;;;;;;5063817;28;19909;-82
2021/12/10 04:39:11;;;;;;;;;;;3.40;1.00;;;;;;5068310;28;19928;-82
2021/12/10 04:41:37;;;;;;;;;;;3.30;1.00;;;;;;5074705;28;19920;-82
2021/12/10 04:44:03;;;;;;;;;;;3.30;1.00;;;;;;5065990;28;20305;-82
2021/12/10 04:46:29;;;;;;;;;;;3.30;1.00;;;;;;5066606;28;19912;-82
2021/12/10 04:48:59;;;;;;;;;;;3.30;1.00;;;;;;5056701;28;19985;-82
2021/12/10 04:51:26;;;;;;;;;;;3.30;1.00;;;;;;5030884;28;20361;-82
2021/12/10 04:53:53;;;;;;;;;;;3.30;1.00;;;;;;5065081;28;20007;-82
2021/12/10 04:56:18;;;;;;;;;;;3.20;1.00;;;;;;5063690;28;19924;-82
2021/12/10 04:58:44;;;;;;;;;;;3.20;1.00;;;;;;5068901;28;19913;-82
2021/12/10 05:01:10;;;;;;;;;;;3.30;1.00;;;;;;5069930;28;20003;-82
2021/12/10 05:03:35;;;;;;;;;;;3.20;1.00;;;;;;5054127;28;19913;-82
2021/12/10 05:06:03;;;;;;;;;;;3.20;1.00;;;;;;5056748;28;19913;-82
2021/12/10 05:08:33;;;;;;;;;;;3.20;1.00;;;;;;5027939;28;20004;-82
2021/12/10 05:10:59;;;;;;;;;;;3.20;1.00;;;;;;5067968;28;19916;-82
2021/12/10 05:13:25;;;;;;;;;;;3.10;1.00;;;;;;5066511;28;19920;-83
2021/12/10 05:15:56;;;;;;;;;;;3.20;1.00;;;;;;5045808;28;19913;-82
2021/12/10 05:18:22;;;;;;;;;;;3.10;1.00;;;;;;5043531;28;19956;-82
2021/12/10 05:20:48;;;;;;;;;;;3.10;1.00;;;;;;5065901;28;19913;-82
2021/12/10 05:23:18;;;;;;;;;;;3.10;1.00;;;;;;5066946;28;19913;-82
2021/12/10 05:25:44;;;;;;;;;;;3.10;1.00;;;;;;5040862;28;19913;-82
2021/12/10 05:28:10;;;;;;;;;;;3.00;1.00;;;;;;5069743;28;19935;-82
2021/12/10 05:30:36;;;;;;;;;;;3.10;1.00;;;;;;5053037;28;20002;-82
2021/12/10 05:33:02;;;;;;;;;;;3.10;1.00;;;;;;5066999;28;19913;-82
2021/12/10 05:35:29;;;;;;;;;;;3.10;1.00;;;;;;5081398;28;20392;-82
2021/12/10 05:37:55;;;;;;;;;;;3.20;1.00;;;;;;5061676;28;19917;-82
2021/12/10 05:40:20;;;;;;;;;;;3.10;1.00;;;;;;5058062;28;19913;-82
2021/12/10 05:42:46;;;;;;;;;;;3.10;1.00;;;;;;5053026;28;19912;-82
2021/12/10 05:45:12;;;;;;;;;;;3.20;1.00;;;;;;5064858;28;19912;-82
2021/12/10 05:47:37;;;;;;;;;;;3.20;1.00;;;;;;5054112;28;20017;-82
2021/12/10 05:50:04;;;;;;;;;;;3.20;1.00;;;;;;5062647;28;19924;-82
2021/12/10 05:52:30;;;;;;;;;;;3.20;1.00;;;;;;5062139;28;19912;-82
2021/12/10 05:54:55;;;;;;;;;;;3.20;1.00;;;;;;5053407;28;19983;-82
2021/12/10 05:57:21;;;;;;;;;;;3.20;1.00;;;;;;5058530;28;20011;-83
2021/12/10 05:59:46;;;;;;;;;;;3.20;1.00;;;;;;5052216;28;19935;-82
2021/12/10 06:02:12;;;;;;;;;;;3.10;1.00;;;;;;5051965;28;19921;-84
2021/12/10 06:04:38;;;;;;;;;;;3.10;1.00;;;;;;5055539;28;20542;-83
2021/12/10 06:07:04;;;;;;;;;;;3.10;1.00;;;;;;5062262;28;19913;-83
2021/12/10 06:09:30;;;;;;;;;;;3.10;1.00;;;;;;5069709;28;19951;-83
2021/12/10 06:11:55;;;;;;;;;;;3.20;1.00;;;;;;5058270;28;19912;-83
2021/12/10 06:14:21;;;;;;;;;;;3.20;1.00;;;;;;5053040;28;19916;-84
2021/12/10 06:16:46;;;;;;;;;;;3.20;1.00;;;;;;5040093;28;19912;-83
2021/12/10 06:19:12;;;;;;;;;;;3.20;1.00;;;;;;5038586;28;19983;-83
2021/12/10 06:21:38;;;;;;;;;;;3.20;1.00;;;;;;5056991;28;19920;-83
2021/12/10 06:24:04;;;;;;;;;;;3.20;1.00;;;;;;5038797;28;19959;-83
2021/12/10 06:26:30;;;;;;;;;;;3.20;1.00;;;;;;5057120;28;19909;-83
2021/12/10 06:28:55;;;;;;;;;;;3.20;1.00;;;;;;5020371;28;20298;-83
2021/12/10 06:31:22;;;;;;;;;;;3.20;1.00;;;;;;5049715;28;20011;-83
2021/12/10 06:33:48;;;;;;;;;;;3.30;1.00;;;;;;5070378;28;19975;-83
2021/12/10 06:36:14;;;;;;;;;;;3.30;1.00;;;;;;5036682;28;19915;-83
2021/12/10 06:38:40;;;;;;;;;;;3.30;1.00;;;;;;5055591;28;19963;-83
2021/12/10 06:41:06;;;;;;;;;;;3.30;1.00;;;;;;5039321;28;20404;-84
2021/12/10 06:43:31;;;;;;;;;;;3.30;1.00;;;;;;5058553;28;19909;-83
2021/12/10 06:45:57;;;;;;;;;;;3.30;1.00;;;;;;5047578;28;19913;-83
2021/12/10 06:48:23;;;;;;;;;;;3.30;1.00;;;;;;5039989;28;19913;-83
2021/12/10 06:50:50;;;;;;;;;;;3.30;1.00;;;;;;5042627;28;19913;-84
2021/12/10 06:53:17;;;;;;;;;;;3.40;1.00;;;;;;5048224;28;19916;-83
2021/12/10 06:55:42;;;;;;;;;;;3.40;1.00;;;;;;5059231;28;19920;-85
2021/12/10 06:58:08;;;;;;;;;;;3.40;1.00;;;;;;5059509;28;19917;-85
2021/12/10 07:00:40;;;;;;;;;;;3.50;99.90;;;;;;5033623;28;19913;-84
2021/12/10 07:03:06;;;;;;;;;;;3.60;99.90;;;;;;5032501;28;19923;-84
2021/12/10 07:05:32;;;;;;;;;;;3.60;99.90;;;;;;5060071;28;20380;-85
2021/12/10 07:07:57;;;;;;;;;;;3.70;99.90;;;;;;5076635;28;20059;-84
2021/12/10 07:10:23;;;;;;;;;;;3.70;99.90;;;;;;5050488;28;19967;-85
2021/12/10 07:12:48;;;;;;;;;;;3.70;99.90;;;;;;5042726;28;20384;-84
2021/12/10 07:15:15;;;;;;;;;;;3.70;99.90;;;;;;5062419;28;19948;-85
2021/12/10 07:17:42;;;;;;;;;;;3.70;99.90;;;;;;5060463;28;19913;-85
2021/12/10 07:20:08;;;;;;;;;;;3.70;99.90;;;;;;5053009;28;20384;-85
2021/12/10 07:22:34;;;;;;;;;;;3.70;99.80;;;;;;5045375;28;19939;-84
2021/12/10 07:25:00;;;;;;;;;;;3.70;28.70;;;;;;5069989;28;19916;-84
2021/12/10 07:27:25;;;;;;;;;;;3.70;9.60;;;;;;5061108;28;20399;-84
2021/12/10 07:29:51;;;;;;;;;;;3.70;21.10;;;;;;5063258;28;19985;-85
2021/12/10 07:32:16;;;;;;;;;;;3.70;1.00;;;;;;5062036;28;19939;-85
2021/12/10 07:34:42;;;;;;;;;;;3.80;1.00;;;;;;5035018;28;19920;-84
2021/12/10 07:37:10;;;;;;;;;;;3.80;1.00;;;;;;5069089;28;19923;-84
2021/12/10 07:39:37;;;;;;;;;;;5.60;1.00;;;;;;5055897;28;19916;-85
2021/12/10 07:42:03;;;;;;;;;;;3.80;1.00;;;;;;5054256;28;19939;-83
2021/12/10 07:44:28;;;;;;;;;;;3.80;1.00;;;;;;5066962;28;19916;-84
2021/12/10 07:46:55;;;;;;;;;;;3.80;1.00;;;;;;5040728;28;20115;-83
2021/12/10 07:49:28;;;;;;;;;;;3.80;1.00;;;;;;5057922;28;19913;-85
2021/12/10 07:51:54;;;;;;;;;;;3.80;1.00;;;;;;5047125;28;19919;-85
2021/12/10 07:54:20;;;;;;;;;;;3.80;99.90;;;;;;5050407;28;19916;-85
2021/12/10 07:56:45;;;;;;;;;;;3.80;99.90;;;;;;5073311;28;19919;-84
2021/12/10 07:59:11;;;;;;;;;;;3.80;99.90;;;;;;5041338;28;19974;-84
2021/12/10 08:01:37;;;;;;;;;;;3.90;99.90;;;;;;5032275;28;19925;-84
2021/12/10 08:04:03;;;;;;;;;;;3.80;99.90;;;;;;5061893;28;19935;-84
2021/12/10 08:06:30;;;;;;;;;;;3.90;99.90;;;;;;5048413;28;19947;-84
2021/12/10 08:08:56;;;;;;;;;;;3.90;99.90;;;;;;5055694;28;20189;-85
2021/12/10 08:11:21;;;;;;;;;;;3.90;54.70;;;;;;5049309;28;19966;-84
2021/12/10 08:13:48;;;;;;;;;;;3.90;1.00;;;;;;5045875;28;19913;-85
2021/12/10 08:16:13;;;;;;;;;;;4.00;1.00;;;;;;5050397;28;20327;-85
2021/12/10 08:18:39;;;;;;;;;;;4.00;1.00;;;;;;5047355;28;19916;-85
2021/12/10 08:21:05;;;;;;;;;;;4.00;1.00;;;;;;5057874;28;19924;-85
2021/12/10 08:23:31;;;;;;;;;;;4.20;1.00;;;;;;5055864;28;19921;-85
2021/12/10 08:25:56;;;;;;;;;;;4.00;99.90;;;;;;5048335;28;19924;-85
2021/12/10 08:28:24;;;;;;;;;;;4.00;99.90;;;;;;5068576;28;19917;-84
2021/12/10 08:30:50;;;;;;;;;;;4.10;99.90;;;;;;5071998;28;19921;-85
2021/12/10 08:33:16;;;;;;;;;;;4.10;99.90;;;;;;5051551;28;19939;-84
2021/12/10 08:35:45;;;;;;;;;;;4.10;1.00;;;;;;5046845;28;19956;-85
2021/12/10 08:38:11;;;;;;;;;;;4.10;1.00;;;;;;5066369;28;19939;-84
2021/12/10 08:40:39;;;;;;;;;;;4.20;1.00;;;;;;5067154;28;19912;-84
2021/12/10 08:43:05;;;;;;;;;;;4.20;1.00;;;;;;5051652;28;19996;-85
2021/12/10 08:45:31;;;;;;;;;;;4.20;99.90;;;;;;5046198;28;20360;-85
2021/12/10 08:47:56;;;;;;;;;;;4.30;99.90;;;;;;5050789;28;19996;-85
2021/12/10 08:50:23;;;;;;;;;;;4.30;99.90;;;;;;5043216;28;19916;-84
2021/12/10 08:52:57;;;;;;;;;;;4.40;99.90;;;;;;5039701;28;20004;-83
2021/12/10 08:55:24;;;;;;;;;;;4.30;99.90;;;;;;5051360;28;19917;-83
2021/12/10 08:57:50;;;;;;;;;;;4.30;43.40;;;;;;5024205;28;19921;-83
2021/12/10 09:00:16;;;;;;;;;;;4.40;52.30;;;;;;5041011;28;19913;-83
2021/12/10 09:02:42;;;;;;;;;;;4.40;12.60;;;;;;5055038;28;19925;-83
2021/12/10 09:05:08;;;;;;;;;;;4.50;44.10;;;;;;5056768;28;20292;-83
2021/12/10 09:07:35;;;;;;;;;;;4.50;1.00;;;;;;5055202;28;19913;-84
2021/12/10 09:10:01;;;;;;;;;;;4.60;1.00;;;;;;5051899;28;19913;-84
2021/12/10 09:12:27;;;;;;;;;;;4.60;1.00;;;;;;5071360;28;19947;-83
2021/12/10 09:14:55;;;;;;;;;;;4.60;1.00;;;;;;5066466;28;19963;-83
2021/12/10 09:17:23;;;;;;;;;;;4.60;1.00;;;;;;5047664;28;20300;-83
2021/12/10 09:19:50;;;;;;;;;;;4.60;1.00;;;;;;5057761;28;19913;-83
2021/12/10 09:22:16;;;;;;;;;;;4.70;1.00;;;;;;5058644;28;19916;-84
2021/12/10 09:24:42;;;;;;;;;;;4.60;1.00;;;;;;5027937;28;20320;-83
2021/12/10 09:27:08;;;;;;;;;;;4.70;1.00;;;;;;5050661;28;20293;-83
2021/12/10 09:29:35;;;;;;;;;;;4.70;99.90;;;;;;5066865;28;19944;-83
2021/12/10 09:32:02;;;;;;;;;;;4.70;1.00;;;;;;5060329;28;20416;-84
2021/12/10 09:34:27;;;;;;;;;;;4.70;1.00;;;;;;5074062;28;19923;-83
2021/12/10 09:36:53;;;;;;;;;;;4.70;99.90;;;;;;5066032;28;19956;-83
2021/12/10 09:39:19;;;;;;;;;;;4.80;99.90;;;;;;5067138;28;20052;-84
2021/12/10 09:41:45;;;;;;;;;;;4.80;99.90;;;;;;5053134;28;19956;-85
2021/12/10 09:44:10;;;;;;;;;;;4.90;99.90;;;;;;5037386;28;19919;-85
2021/12/10 09:46:37;;;;;;;;;;;4.80;99.90;;;;;;5031794;28;19959;-85
2021/12/10 09:49:04;;;;;;;;;;;4.80;99.90;;;;;;5062091;28;19967;-85
2021/12/10 09:51:32;;;;;;;;;;;4.70;94.20;;;;;;5060679;28;19927;-85
2021/12/10 09:53:59;;;;;;;;;;;4.80;99.90;;;;;;5079341;22;19924;-81
2021/12/10 09:56:26;;;;;;;;;;;4.80;99.90;;;;;;5039818;28;19918;-83
2021/12/10 09:58:56;;;;;;;;;;;4.70;22.50;;;;;;5036146;28;19917;-83
2021/12/10 10:01:29;;;;;;;;;;;4.70;99.90;;;;;;5035684;28;19929;-83
2021/12/10 10:04:01;;;;;;;;;;;4.80;1.00;;;;;;5037008;28;19939;-84
2021/12/10 10:06:56;;;;;;;;;;;4.90;5.30;;;;;;5033941;28;19920;-83
2021/12/10 10:09:25;;;;;;;;;;;4.90;1.00;;;;;;5032505;28;19932;-84
2021/12/10 10:11:54;;;;;;;;;;;4.90;1.00;;;;;;5032122;28;19913;-83
2021/12/10 10:14:40;;;;;;;;;;;4.90;1.00;;;;;;5031510;28;19917;-83
2021/12/10 10:20:03;;;;;;;;;;;5.00;1.00;;;;;;5033760;28;19917;-83
2021/12/10 10:22:32;;;;;;;;;;;5.10;1.00;;;;;;5038297;28;20491;-83
2021/12/10 10:25:00;;;;;;;;;;;5.20;1.00;;;;;;5039079;28;19920;-83
2021/12/10 10:27:28;;;;;;;;;;;5.30;99.90;;;;;;5039005;28;19959;-83
2021/12/10 10:29:58;;;;;;;;;;;5.30;99.90;;;;;;5037838;28;19913;-84
2021/12/10 10:32:25;;;;;;;;;;;5.40;20.30;;;;;;5033942;28;19959;-84
2021/12/10 10:34:58;;;;;;;;;;;5.40;99.90;;;;;;5030423;28;19940;-83
2021/12/10 10:37:23;;;;;;;;;;;5.30;99.90;;;;;;5036623;28;19920;-84
2021/12/10 10:39:49;;;;;;;;;;;5.30;1.00;;;;;;5037203;28;20429;-83
2021/12/10 10:42:17;;;;;;;;;;;5.30;1.00;;;;;;5039241;28;19921;-83
2021/12/10 10:44:52;;;;;;;;;;;5.20;1.00;;;;;;5048233;28;20000;-84
2021/12/10 10:47:22;;;;;;;;;;;5.20;1.00;;;;;;5031501;28;19921;-83
2021/12/10 10:49:50;;;;;;;;;;;5.30;1.00;;;;;;5036865;28;20294;-83
2021/12/10 10:52:19;;;;;;;;;;;5.40;1.00;;;;;;5036920;28;19920;-83
2021/12/10 10:54:46;;;;;;;;;;;5.30;1.00;;;;;;5031777;28;19925;-83
2021/12/10 10:57:24;;;;;;;;;;;5.20;1.00;;;;;;5034783;28;19983;-83
2021/12/10 10:59:54;;;;;;;;;;;5.20;1.00;;;;;;5038035;28;19913;-83
2021/12/10 11:02:19;;;;;;;;;;;5.20;1.00;;;;;;5032734;28;19917;-83
2021/12/10 11:04:50;;;;;;;;;;;5.10;1.00;;;;;;5031607;28;19913;-83
2021/12/10 11:07:22;;;;;;;;;;;5.00;1.00;;;;;;5038158;28;19966;-84
2021/12/10 11:09:56;;;;;;;;;;;5.10;1.00;;;;;;5035626;28;20347;-84
2021/12/10 11:15:10;;;;;;;;;;;5.10;39.80;;;;;;5036178;28;19913;-83
2021/12/10 11:17:44;;;;;;;;;;;4.90;99.90;;;;;;5033608;28;19913;-82
2021/12/10 11:20:16;;;;;;;;;;;4.90;99.90;;;;;;5029827;28;20096;-83
2021/12/10 11:22:49;;;;;;;;;;;4.80;1.00;;;;;;5035965;28;19928;-82
2021/12/10 11:25:18;;;;;;;;;;;4.70;1.00;;;;;;5029976;28;19920;-82
2021/12/10 11:27:44;;;;;;;;;;;4.70;99.90;;;;;;5031953;28;19913;-83
2021/12/10 11:30:24;;;;;;;;;;;4.60;99.90;;;;;;5035336;28;19956;-83
2021/12/10 11:33:00;;;;;;;;;;;4.60;1.00;;;;;;5033503;28;20535;-82
2021/12/10 11:35:32;;;;;;;;;;;4.50;99.90;;;;;;5026918;28;19956;-83
2021/12/10 11:37:59;;;;;;;;;;;4.40;1.00;;;;;;5026937;28;20329;-83
2021/12/10 11:40:45;;;;;;;;;;;4.40;1.00;;;;;;5032573;28;19913;-83
2021/12/10 11:43:33;;;;;;;;;;;4.30;99.90;;;;;;5032513;28;19967;-83
2021/12/10 11:48:35;;;;;;;;;;;4.10;99.90;;;;;;5036896;28;19936;-83
2021/12/10 11:51:07;;;;;;;;;;;4.00;99.90;;;;;;5036241;28;19920;-83
2021/12/10 11:53:45;;;;;;;;;;;3.90;1.00;;;;;;5034038;28;19953;-83
2021/12/10 11:56:21;;;;;;;;;;;3.90;16.20;;;;;;5031473;28;20389;-83
2021/12/10 11:59:04;;;;;;;;;;;3.90;1.00;;;;;;5029454;28;19939;-83
2021/12/10 12:01:31;;;;;;;;;;;4.00;9.60;;;;;;5031182;28;20445;-84
2021/12/10 12:03:56;;;;;;;;;;;3.90;99.90;;;;;;5035517;28;19913;-83
2021/12/10 12:06:22;;;;;;;;;;;3.80;99.90;;;;;;5035286;28;19917;-84
2021/12/10 12:08:48;;;;;;;;;;;3.80;56.80;;;;;;5028031;28;19970;-83
2021/12/10 12:11:16;;;;;;;;;;;3.70;1.00;;;;;;5033619;28;19924;-83
2021/12/10 12:13:53;;;;;;;;;;;3.80;99.90;;;;;;5032996;28;20378;-84
2021/12/10 12:16:24;;;;;;;;;;;3.80;99.90;;;;;;5037675;28;19920;-84
2021/12/10 12:18:52;;;;;;;;;;;3.80;99.90;;;;;;5038605;28;19952;-84
2021/12/10 12:27:05;;;;;;;;;;;3.90;99.90;;;;;;5038061;28;19924;-84
2021/12/10 12:29:35;;;;;;;;;;;4.00;1.00;;;;;;5033702;28;19913;-84
2021/12/10 12:32:00;;;;;;;;;;;4.00;1.00;;;;;;5033595;28;19953;-83
2021/12/10 12:34:27;;;;;;;;;;;4.10;1.00;;;;;;5033468;28;19917;-83
2021/12/10 12:37:00;;;;;;;;;;;4.10;1.00;;;;;;5033010;28;19917;-84
2021/12/10 12:39:26;;;;;;;;;;;4.20;1.00;;;;;;5037931;28;20024;-84
2021/12/10 12:41:52;;;;;;;;;;;4.20;99.90;;;;;;5037458;28;19983;-84
2021/12/10 12:44:20;;;;;;;;;;;4.20;99.90;;;;;;5037027;28;19913;-84
2021/12/10 12:47:03;;;;;;;;;;;4.20;74.30;;;;;;5036800;28;19924;-85
2021/12/10 12:49:37;;;;;;;;;;;4.30;40.70;;;;;;5040275;28;19913;-84
2021/12/10 12:52:07;;;;;;;;;;;4.30;46.40;;;;;;5037903;28;19971;-85
2021/12/10 12:54:37;;;;;;;;;;;4.30;99.90;;;;;;5039866;28;19917;-85
2021/12/10 12:57:04;;;;;;;;;;;4.30;74.30;;;;;;5042698;28;19921;-84
2021/12/10 12:59:30;;;;;;;;;;;4.40;99.90;;;;;;5046077;28;19909;-84
2021/12/10 13:01:57;;;;;;;;;;;4.40;1.00;;;;;;5037134;28;20297;-83
2021/12/10 13:04:28;;;;;;;;;;;4.50;99.90;;;;;;5042719;28;20410;-84
2021/12/10 13:07:01;;;;;;;;;;;4.50;99.90;;;;;;5042259;28;19968;-84
2021/12/10 13:09:38;;;;;;;;;;;4.50;99.90;;;;;;5040973;28;20011;-84
2021/12/10 13:12:10;;;;;;;;;;;4.50;1.00;;;;;;5042034;28;20686;-84
2021/12/10 13:14:46;;;;;;;;;;;4.60;1.00;;;;;;5040537;28;19910;-84
2021/12/10 13:17:13;;;;;;;;;;;4.60;1.00;;;;;;5039710;28;19979;-84
2021/12/10 13:19:39;;;;;;;;;;;4.50;1.00;;;;;;5043095;28;19938;-84
2021/12/10 13:22:09;;;;;;;;;;;4.50;1.00;;;;;;5039359;28;20036;-84
2021/12/10 13:24:36;;;;;;;;;;;4.50;1.00;;;;;;5039369;28;19999;-84
2021/12/10 13:27:02;;;;;;;;;;;4.50;1.00;;;;;;5035974;28;20000;-82
2021/12/10 13:29:29;;;;;;;;;;;4.60;27.10;;;;;;5045067;28;19913;-82
2021/12/10 13:31:54;;;;;;;;;;;4.60;99.90;;;;;;5041018;28;19905;-84
2021/12/10 13:34:20;;;;;;;;;;;4.60;99.90;;;;;;5033427;28;19917;-84
2021/12/10 13:36:45;;;;;;;;;;;4.60;99.90;;;;;;5040595;28;19920;-84
2021/12/10 13:39:11;;;;;;;;;;;4.60;47.60;;;;;;5041544;28;19920;-83
2021/12/10 13:41:37;;;;;;;;;;;4.60;99.90;;;;;;5041571;28;19937;-83
2021/12/10 13:44:08;;;;;;;;;;;4.60;99.90;;;;;;5041347;28;19913;-84
2021/12/10 13:46:45;;;;;;;;;;;4.70;99.90;;;;;;5039047;28;19909;-84
2021/12/10 13:49:11;;;;;;;;;;;4.70;99.90;;;;;;5040780;28;20527;-84
2021/12/10 13:51:41;;;;;;;;;;;4.70;1.00;;;;;;5043222;28;19910;-84
2021/12/10 13:54:09;;;;;;;;;;;4.80;1.00;;;;;;5037628;28;19920;-84
2021/12/10 13:56:36;;;;;;;;;;;4.80;1.00;;;;;;5043342;28;19943;-84
2021/12/10 13:59:04;;;;;;;;;;;4.90;99.90;;;;;;5042611;28;19985;-84
2021/12/10 14:01:34;;;;;;;;;;;4.80;99.90;;;;;;5041655;28;19951;-84
2021/12/10 14:04:00;;;;;;;;;;;4.70;1.00;;;;;;5037888;28;19918;-84
2021/12/10 14:06:35;;;;;;;;;;;4.70;1.00;;;;;;5038971;28;20014;-84
2021/12/10 14:09:06;;;;;;;;;;;4.70;1.00;;;;;;5043124;28;19913;-84
2021/12/10 14:11:51;;;;;;;;;;;4.60;1.00;;;;;;5041379;28;19921;-84
2021/12/10 14:14:16;;;;;;;;;;;4.60;1.00;;;;;;5042748;28;19914;-84
2021/12/10 14:16:46;;;;;;;;;;;4.60;19.40;;;;;;5042061;28;20220;-84
2021/12/10 14:19:27;;;;;;;;;;;4.60;99.90;;;;;;5042967;28;19917;-84
2021/12/10 14:21:52;;;;;;;;;;;4.60;99.90;;;;;;5039046;28;19928;-84
2021/12/10 14:24:29;;;;;;;;;;;4.60;99.90;;;;;;5041060;28;19914;-84
2021/12/10 14:27:12;;;;;;;;;;;4.50;99.90;;;;;;5038167;28;19913;-84
2021/12/10 14:29:37;;;;;;;;;;;4.50;99.90;;;;;;5040988;28;20363;-84
2021/12/10 14:32:17;;;;;;;;;;;4.40;99.90;;;;;;5042588;28;19920;-84
2021/12/10 14:34:59;;;;;;;;;;;4.40;99.90;;;;;;5037764;28;19913;-84
2021/12/10 14:37:24;;;;;;;;;;;4.40;99.90;;;;;;5039049;28;19913;-83
2021/12/10 14:40:06;;;;;;;;;;;4.40;1.00;;;;;;5035265;28;19913;-84
2021/12/10 14:42:31;;;;;;;;;;;4.40;1.00;;;;;;5039761;28;19936;-84
2021/12/10 14:45:06;;;;;;;;;;;4.40;1.00;;;;;;5042178;28;19917;-83
2021/12/10 14:47:32;;;;;;;;;;;4.40;1.00;;;;;;5034482;28;19935;-83
2021/12/10 14:50:02;;;;;;;;;;;4.40;1.00;;;;;;5040679;28;19913;-85
2021/12/10 14:52:33;;;;;;;;;;;4.40;1.00;;;;;;5040328;28;20274;-83
2021/12/10 14:55:18;;;;;;;;;;;4.30;99.90;;;;;;5032215;28;19921;-84
2021/12/10 14:57:58;;;;;;;;;;;4.30;16.10;;;;;;5033043;28;19912;-84
2021/12/10 15:00:27;;;;;;;;;;;4.30;20.40;;;;;;5039811;28;19924;-84
2021/12/10 15:03:04;;;;;;;;;;;4.20;1.00;;;;;;5038076;28;19921;-83
2021/12/10 15:05:36;;;;;;;;;;;4.10;1.00;;;;;;5047197;28;19952;-84
2021/12/10 15:08:02;;;;;;;;;;;4.10;72.70;;;;;;5033135;28;19917;-83